الصفحة الرئيسية
METAR-TAF:

METAR-TAF

مطار :

كينشاسا, كونغو

مطار ندجيلي

دائرة عرض: 04-23S, خط طول: 015-26E, ارتفاع: 309 متر

METAR: مفقودة

زمن: 04:06 (03:06 UTC)

توقعات

تاريخ ووقت الإصدار 22ساعات و 6 دقيقة قبل الساعة 05:00UTC
التوقعات صالحة من21 الساعة 06 UTC إلى 22 الساعة 12 UTC
ريح 6 عقدة من الغرب/الجنوب الغربي
الرؤية 10 كم أو أكثر
غيوم مفككة على ارتفاع 1600 قدم
غيوم قليلة على ارتفاع 3000 قدم, مزنة ركامية.
أصبح
من 21 الساعة 08 UTC إلى 21 الساعة 10 UTC
ريح 10 عقدة من الغرب/الشمال الغربي
غيوم متفرقة على ارتفاع 2000 قدم
أصبح
من 21 الساعة 12 UTC إلى 21 الساعة 14 UTC
غيوم قليلة على ارتفاع 2300 قدم
غيوم قليلة على ارتفاع 3000 قدم, مزنة ركامية.
نظرية الاحتمالات 30% :
مؤقت
من 21 الساعة 17 UTC إلى 21 الساعة 21 UTC
عاصفة رعدية
أصبح
من 21 الساعة 22 UTC إلى 22 الساعة 01 UTC
ريح 4 عقدة من الجنوب/الجنوب الغربي
غيوم متفرقة على ارتفاع 1800 قدم

TAF: FZAA 210500Z 2106/2212 24006KT 9999 BKN016 FEW030CB BECMG 2108/2110 30010KT SCT020 BECMG 2112/2114 FEW023 FEW030CB PROB30 TEMPO 2117/2121 TS BECMG 2122/2201 20004KT SCT018

أرصاد الطقس والتوقعات من أكثر من 4000 مطار (تقارير الطقس للمطار METAR والتنبؤ بالطقس بالمطارTAF).

المحطات المتاحة هي النقط الصفراء والحمراء على الخريطة.

حرك المؤشر فوق النقطة لمعرفة اسم المحطة.

ثم انقر لمعرفة أرصاد وتوقعات الطقس.

لتغيير الخارطة: اضغط على الأزرار الخضراء مع رمز الصليب الأسود للتكبير. على الزر الأخضر مع شرطة للتصغير، أو على الأسهم الخضراء للخرائط المجاورة.


METAR-TAF: